Stottfjord — LMCE — position and weather

sailwx.info

Track history (hours):
 
Tides and Currents Weather Stations Pressure Air Temp Water Temp Dewpoint Dewpoint Depression Visibility Wind Speed Wind Dir Waves Ship Positions

Stottfjord

Last reported at 2016-May-05 08:23 UTC. Time now 2016-May-28 20:42 UTC.
Position N 69°19' E 018°00'.
Warning: this ship's position is 23 days out of date.

Length 28 m; draft 5.3 m.

Type: Fishing. MMSI: 257580600.

Date/timePositionNaut miles runAvg speedWind from/ knotsBaromVisibWave heightAir tempDewpointWater temp
2016-May-05 08:23N 69°19' E 018°00'7 8.7
2016-May-05 07:33N 69°12' E 018°01'9 9.1
2016-May-05 06:33N 69°07' E 017°39'108 8.9
2016-May-04 18:20N 67°44' E 014°31'16 9.1
2016-May-04 16:33N 67°28' E 014°28'9 9.3
2016-May-04 15:33N 67°19' E 014°23'1 1.3
2016-May-04 14:31N 67°17' E 014°23'0 0.0
2016-May-04 13:31N 67°17' E 014°23'0 0.0
2016-May-04 12:28N 67°17' E 014°23'0 0.0
2016-May-04 11:31N 67°17' E 014°23'0 0.0
2016-May-04 10:31N 67°17' E 014°23'0 0.0
2016-May-04 09:31N 67°17' E 014°23'0 0.0
2016-May-04 08:31N 67°17' E 014°23'0 0.0
2016-May-04 07:31N 67°17' E 014°23'0 0.0
2016-May-04 06:31N 67°17' E 014°23'0 0.0
2016-May-04 05:31N 67°17' E 014°23'0 0.0
2016-May-04 04:31N 67°17' E 014°23'0 0.0
2016-May-04 03:31N 67°17' E 014°23'0 0.0
2016-May-04 02:31N 67°17' E 014°23'0 0.0
2016-May-04 01:31N 67°17' E 014°23'0 0.0
2016-May-04 00:31N 67°17' E 014°23'0 0.0
2016-May-03 23:31N 67°17' E 014°23'0 0.0
2016-May-03 22:31N 67°17' E 014°23'0 0.0
2016-May-03 21:31N 67°17' E 014°23'0 0.0
2016-May-03 20:31N 67°17' E 014°23'0 0.0
2016-May-03 19:31N 67°17' E 014°23'0 0.0
2016-May-03 18:31N 67°17' E 014°23'0 0.0
2016-May-03 17:31N 67°17' E 014°23'0 0.0
2016-May-03 16:31N 67°17' E 014°23'0 0.0
2016-May-03 15:31N 67°17' E 014°23'0 0.0
2016-May-03 14:31N 67°17' E 014°23'0 0.0
2016-May-03 13:31N 67°17' E 014°23'0 0.0
2016-May-03 12:31N 67°17' E 014°23'0 0.0
2016-May-03 11:31N 67°17' E 014°23'0 0.0
2016-May-03 10:31N 67°17' E 014°23'0 0.0
2016-May-03 09:31N 67°17' E 014°23'0 0.0
2016-May-03 08:31N 67°17' E 014°23'0 0.0
2016-May-03 07:31N 67°17' E 014°23'0 0.0
2016-May-03 06:31N 67°17' E 014°23'0 0.0
2016-May-03 05:31N 67°17' E 014°23'0 0.0
2016-May-03 04:31N 67°17' E 014°23'0 0.0
2016-May-03 03:31N 67°17' E 014°23'0 0.0
2016-May-03 02:31N 67°17' E 014°23'0 0.0
2016-May-03 01:31N 67°17' E 014°23'0 0.0
2016-May-03 00:31N 67°17' E 014°23'0 0.0
2016-May-02 23:31N 67°17' E 014°23'0 0.0
2016-May-02 22:31N 67°17' E 014°23'0 0.0
2016-May-02 21:31N 67°17' E 014°23'0 0.0
2016-May-02 20:31N 67°17' E 014°23'0 0.0
2016-May-02 19:31N 67°17' E 014°23'0 0.0
2016-May-02 18:31N 67°17' E 014°23'0 0.0
2016-May-02 17:31N 67°17' E 014°23'0 0.0
2016-May-02 16:31N 67°17' E 014°23'0 0.0
2016-May-02 15:31N 67°17' E 014°23'0 0.0
2016-May-02 14:31N 67°17' E 014°23'0 0.0
2016-May-02 13:31N 67°17' E 014°23'0 0.0
2016-May-02 12:31N 67°17' E 014°23'0 0.0
2016-May-02 11:31N 67°17' E 014°23'0 0.0
2016-May-02 10:31N 67°17' E 014°23'0 0.0
2016-May-02 09:31N 67°17' E 014°23'0 0.0
2016-May-02 08:31N 67°17' E 014°23'0 0.0
2016-May-02 07:31N 67°17' E 014°23'0 0.0
2016-May-02 06:31N 67°17' E 014°23'0 0.0
2016-May-02 05:31N 67°17' E 014°23'0 0.0
2016-May-02 04:31N 67°17' E 014°23'0 0.0
2016-May-02 03:31N 67°17' E 014°23'0 0.0
2016-May-02 02:31N 67°17' E 014°23'0 0.0
2016-May-02 01:31N 67°17' E 014°23'0 0.0
2016-May-02 00:31N 67°17' E 014°23'0 0.0
2016-May-01 23:31N 67°17' E 014°23'0 0.0
2016-May-01 22:31N 67°17' E 014°23'0 0.0
2016-May-01 21:31N 67°17' E 014°23'0 0.0
2016-May-01 20:31N 67°17' E 014°23'0 0.0
2016-May-01 19:31N 67°17' E 014°23'0 0.0
2016-May-01 18:31N 67°17' E 014°23'0 0.0
2016-May-01 17:31N 67°17' E 014°23'0 0.0
2016-May-01 16:31N 67°17' E 014°23'0 0.0
2016-May-01 15:31N 67°17' E 014°23'0 0.0
2016-May-01 14:31N 67°17' E 014°23'0 0.0
2016-May-01 13:31N 67°17' E 014°23'0 0.0
2016-May-01 12:31N 67°17' E 014°23'0 0.0
2016-May-01 11:31N 67°17' E 014°23'0 0.0
2016-May-01 10:31N 67°17' E 014°23'0 0.0
2016-May-01 09:31N 67°17' E 014°23'0 0.0
2016-May-01 08:31N 67°17' E 014°23'0 0.0
2016-May-01 07:31N 67°17' E 014°23'0 0.0
2016-May-01 06:31N 67°17' E 014°23'0 0.0
2016-May-01 05:31N 67°17' E 014°23'0 0.0
2016-May-01 04:31N 67°17' E 014°23'0 0.0
2016-May-01 03:31N 67°17' E 014°23'0 0.0
2016-May-01 02:31N 67°17' E 014°23'0 0.0
2016-May-01 01:31N 67°17' E 014°23'0 0.0
2016-May-01 00:31N 67°17' E 014°23'0 0.0
2016-Apr-30 23:31N 67°17' E 014°23'0 0.0
2016-Apr-30 22:31N 67°17' E 014°23'0 0.0
2016-Apr-30 21:31N 67°17' E 014°23'0 0.0
2016-Apr-30 20:31N 67°17' E 014°23'0 0.0
2016-Apr-30 19:31N 67°17' E 014°23'0 0.0
2016-Apr-30 18:31N 67°17' E 014°23'0 0.0
2016-Apr-30 17:31N 67°17' E 014°23'0 0.0
2016-Apr-30 16:31N 67°17' E 014°23'0 0.0
2016-Apr-30 15:31N 67°17' E 014°23'0 0.0
2016-Apr-30 14:31N 67°17' E 014°23'0 0.0
2016-Apr-30 13:31N 67°17' E 014°23'0 0.0
2016-Apr-30 12:31N 67°17' E 014°23'0 0.0
2016-Apr-30 11:31N 67°17' E 014°23'0 0.0
2016-Apr-30 10:31N 67°17' E 014°23'0 0.0
2016-Apr-30 09:28N 67°17' E 014°23'0 0.0
2016-Apr-30 08:31N 67°17' E 014°23'0 0.0
2016-Apr-30 07:31N 67°17' E 014°23'0 0.0
2016-Apr-30 06:31N 67°17' E 014°23'0 0.0
2016-Apr-30 05:31N 67°17' E 014°23'0 0.0
2016-Apr-30 04:31N 67°17' E 014°23'0 0.0
2016-Apr-30 03:31N 67°17' E 014°23'0 0.0
2016-Apr-30 02:31N 67°17' E 014°23'0 0.0
2016-Apr-30 01:31N 67°17' E 014°23'0 0.0
2016-Apr-30 00:31N 67°17' E 014°23'0 0.0
2016-Apr-29 23:31N 67°17' E 014°23'0 0.0
2016-Apr-29 22:31N 67°17' E 014°23'0 0.0
2016-Apr-29 21:31N 67°17' E 014°23'0 0.0
2016-Apr-29 20:31N 67°17' E 014°23'0 0.0
2016-Apr-29 19:31N 67°17' E 014°23'0 0.0
2016-Apr-29 18:31N 67°17' E 014°23'0 0.0
2016-Apr-29 17:31N 67°17' E 014°23'0 0.0
2016-Apr-29 16:31N 67°17' E 014°23'0 0.0
2016-Apr-29 15:31N 67°17' E 014°23'0 0.0
2016-Apr-29 14:34N 67°17' E 014°23'0 0.0
2016-Apr-29 13:31N 67°17' E 014°23'0 0.0
2016-Apr-29 12:31N 67°17' E 014°23'0 0.0
2016-Apr-29 11:31N 67°17' E 014°23'0 0.0
2016-Apr-29 10:31N 67°17' E 014°23'0 0.0
2016-Apr-29 09:31N 67°17' E 014°23'0 0.0
2016-Apr-29 08:31N 67°17' E 014°23'0 0.0
2016-Apr-29 07:34N 67°17' E 014°23'0 0.0
2016-Apr-29 06:31N 67°17' E 014°23'0 0.0
2016-Apr-29 05:31N 67°17' E 014°23'0 0.0
2016-Apr-29 04:34N 67°17' E 014°23'0 0.0
2016-Apr-29 03:31N 67°17' E 014°23'0 0.0
2016-Apr-29 02:31N 67°17' E 014°23'0 0.0
2016-Apr-29 01:31N 67°17' E 014°23'0 0.0
2016-Apr-29 00:31N 67°17' E 014°23'0 0.0
2016-Apr-28 23:34N 67°17' E 014°23'0 0.0
2016-Apr-28 22:31N 67°17' E 014°23'0 0.0
2016-Apr-28 21:31N 67°17' E 014°23'0 0.0
2016-Apr-28 20:33N 67°17' E 014°23'0 0.0
2016-Apr-28 19:33N 67°17' E 014°23'0 0.0
2016-Apr-28 18:31N 67°17' E 014°23'0 0.0
2016-Apr-28 17:34N 67°17' E 014°23'0 0.0
2016-Apr-28 16:30N 67°17' E 014°23'0 0.0
2016-Apr-28 15:34N 67°17' E 014°23'0 0.0
2016-Apr-28 14:34N 67°17' E 014°23'0 0.0
2016-Apr-28 13:33N 67°17' E 014°23'0 0.0
2016-Apr-28 12:33N 67°17' E 014°23'0 0.0
2016-Apr-28 11:34N 67°17' E 014°23'0 0.0
2016-Apr-28 10:31N 67°17' E 014°23'0 0.0
2016-Apr-28 09:33N 67°17' E 014°23'0 0.0
2016-Apr-28 08:34N 67°17' E 014°23'0 0.0
2016-Apr-28 07:33N 67°17' E 014°23'0 0.0
2016-Apr-28 06:33N 67°17' E 014°23'0 0.0
2016-Apr-28 05:33N 67°17' E 014°23'0 0.0
2016-Apr-28 04:33N 67°17' E 014°23'0 0.0
2016-Apr-28 03:33N 67°17' E 014°23'0 0.0
2016-Apr-28 02:33N 67°17' E 014°23'0 0.0
2016-Apr-28 01:33N 67°17' E 014°23'0 0.0
2016-Apr-28 00:33N 67°17' E 014°23'0 0.0
2016-Apr-27 23:34N 67°17' E 014°23'0 0.0
2016-Apr-27 22:33N 67°17' E 014°23'0 0.0
2016-Apr-27 21:33N 67°17' E 014°23'0 0.0
2016-Apr-27 20:33N 67°17' E 014°23'0 0.0
2016-Apr-27 19:33N 67°17' E 014°23'0 0.0
2016-Apr-27 18:33N 67°17' E 014°23'0 0.0
2016-Apr-27 17:33N 67°17' E 014°23'0 0.0
2016-Apr-27 16:33N 67°17' E 014°23'0 0.0
2016-Apr-27 15:33N 67°17' E 014°23'0 0.0
2016-Apr-27 14:33N 67°17' E 014°23'0 0.0
2016-Apr-27 13:33N 67°17' E 014°23'0 0.0
2016-Apr-27 12:33N 67°17' E 014°23'0 0.0
2016-Apr-27 11:33N 67°17' E 014°23'0 0.0
2016-Apr-27 10:33N 67°17' E 014°23'0 0.0
2016-Apr-27 09:33N 67°17' E 014°23'0 0.0
2016-Apr-27 08:33N 67°17' E 014°23'0 0.0
2016-Apr-27 07:33N 67°17' E 014°23'0 0.0
2016-Apr-27 06:33N 67°17' E 014°23'0 0.0
2016-Apr-27 05:33N 67°17' E 014°23'0 0.0
2016-Apr-27 04:33N 67°17' E 014°23'0 0.0
2016-Apr-27 03:33N 67°17' E 014°23'0 0.0
2016-Apr-27 02:33N 67°17' E 014°23'0 0.0
2016-Apr-27 01:33N 67°17' E 014°23'0 0.0
2016-Apr-27 00:33N 67°17' E 014°23'0 0.0
2016-Apr-26 23:33N 67°17' E 014°23'0 0.0
2016-Apr-26 22:33N 67°17' E 014°23'0 0.0
2016-Apr-26 21:33N 67°17' E 014°23'0 0.0
2016-Apr-26 20:33N 67°17' E 014°23'0 0.0
2016-Apr-26 19:33N 67°17' E 014°23'0 0.0
2016-Apr-26 18:33N 67°17' E 014°23'0 0.0
2016-Apr-26 17:33N 67°17' E 014°23'0 0.0
2016-Apr-26 16:33N 67°17' E 014°23'0 0.0
2016-Apr-26 15:33N 67°17' E 014°23'0 0.0
2016-Apr-26 14:30N 67°17' E 014°23'0 0.0
2016-Apr-26 13:33N 67°17' E 014°23'0 0.0
2016-Apr-26 12:33N 67°17' E 014°23'2 2.3
2016-Apr-26 11:33N 67°16' E 014°18'9 9.2
2016-Apr-26 10:33N 67°09' E 014°03'10 9.2
2016-Apr-26 09:30N 67°02' E 013°46'10 0.7
2016-Apr-25 18:33N 66°53' E 013°31'3 2.5
2016-Apr-25 17:20N 66°56' E 013°26'7 8.9
2016-Apr-25 16:33N 67°00' E 013°39'9 9.4
2016-Apr-25 15:33N 67°06' E 013°58'9 9.1
2016-Apr-25 14:33N 67°13' E 014°11'6 5.9
2016-Apr-25 13:31N 67°17' E 014°23'0 0.0
2016-Apr-25 12:31N 67°17' E 014°23'0 0.0
2016-Apr-25 11:31N 67°17' E 014°23'0 0.0
2016-Apr-25 10:31N 67°17' E 014°23'0 0.0
2016-Apr-25 09:31N 67°17' E 014°23'0 0.0
2016-Apr-25 08:31N 67°17' E 014°23'  
Track history (hours):
 
Tides and Currents Weather Stations Pressure Air Temp Water Temp Dewpoint Dewpoint Depression Visibility Wind Speed Wind Dir Waves Ship Positions

Stottfjord

Last reported at 2016-May-05 08:23 UTC. Time now 2016-May-28 20:42 UTC.
Position N 69°19' E 018°00'.
Warning: this ship's position is 23 days out of date.

Length 28 m; draft 5.3 m.

Type: Fishing. MMSI: 257580600.

Date/timePositionNaut miles runAvg speedWind from/ knotsBaromVisibWave heightAir tempDewpointWater temp
2016-May-05 08:23N 69°19' E 018°00'7 8.7
2016-May-05 07:33N 69°12' E 018°01'9 9.1
2016-May-05 06:33N 69°07' E 017°39'108 8.9
2016-May-04 18:20N 67°44' E 014°31'16 9.1
2016-May-04 16:33N 67°28' E 014°28'9 9.3
2016-May-04 15:33N 67°19' E 014°23'1 1.3
2016-May-04 14:31N 67°17' E 014°23'0 0.0
2016-May-04 13:31N 67°17' E 014°23'0 0.0
2016-May-04 12:28N 67°17' E 014°23'0 0.0
2016-May-04 11:31N 67°17' E 014°23'0 0.0
2016-May-04 10:31N 67°17' E 014°23'0 0.0
2016-May-04 09:31N 67°17' E 014°23'0 0.0
2016-May-04 08:31N 67°17' E 014°23'0 0.0
2016-May-04 07:31N 67°17' E 014°23'0 0.0
2016-May-04 06:31N 67°17' E 014°23'0 0.0
2016-May-04 05:31N 67°17' E 014°23'0 0.0
2016-May-04 04:31N 67°17' E 014°23'0 0.0
2016-May-04 03:31N 67°17' E 014°23'0 0.0
2016-May-04 02:31N 67°17' E 014°23'0 0.0
2016-May-04 01:31N 67°17' E 014°23'0 0.0
2016-May-04 00:31N 67°17' E 014°23'0 0.0
2016-May-03 23:31N 67°17' E 014°23'0 0.0
2016-May-03 22:31N 67°17' E 014°23'0 0.0
2016-May-03 21:31N 67°17' E 014°23'0 0.0
2016-May-03 20:31N 67°17' E 014°23'0 0.0
2016-May-03 19:31N 67°17' E 014°23'0 0.0
2016-May-03 18:31N 67°17' E 014°23'0 0.0
2016-May-03 17:31N 67°17' E 014°23'0 0.0
2016-May-03 16:31N 67°17' E 014°23'0 0.0
2016-May-03 15:31N 67°17' E 014°23'0 0.0
2016-May-03 14:31N 67°17' E 014°23'0 0.0
2016-May-03 13:31N 67°17' E 014°23'0 0.0
2016-May-03 12:31N 67°17' E 014°23'0 0.0
2016-May-03 11:31N 67°17' E 014°23'0 0.0
2016-May-03 10:31N 67°17' E 014°23'0 0.0
2016-May-03 09:31N 67°17' E 014°23'0 0.0
2016-May-03 08:31N 67°17' E 014°23'0 0.0
2016-May-03 07:31N 67°17' E 014°23'0 0.0
2016-May-03 06:31N 67°17' E 014°23'0 0.0
2016-May-03 05:31N 67°17' E 014°23'0 0.0
2016-May-03 04:31N 67°17' E 014°23'0 0.0
2016-May-03 03:31N 67°17' E 014°23'0 0.0
2016-May-03 02:31N 67°17' E 014°23'0 0.0
2016-May-03 01:31N 67°17' E 014°23'0 0.0
2016-May-03 00:31N 67°17' E 014°23'0 0.0
2016-May-02 23:31N 67°17' E 014°23'0 0.0
2016-May-02 22:31N 67°17' E 014°23'0 0.0
2016-May-02 21:31N 67°17' E 014°23'0 0.0
2016-May-02 20:31N 67°17' E 014°23'0 0.0
2016-May-02 19:31N 67°17' E 014°23'0 0.0
2016-May-02 18:31N 67°17' E 014°23'0 0.0
2016-May-02 17:31N 67°17' E 014°23'0 0.0
2016-May-02 16:31N 67°17' E 014°23'0 0.0
2016-May-02 15:31N 67°17' E 014°23'0 0.0
2016-May-02 14:31N 67°17' E 014°23'0 0.0
2016-May-02 13:31N 67°17' E 014°23'0 0.0
2016-May-02 12:31N 67°17' E 014°23'0 0.0
2016-May-02 11:31N 67°17' E 014°23'0 0.0
2016-May-02 10:31N 67°17' E 014°23'0 0.0
2016-May-02 09:31N 67°17' E 014°23'0 0.0
2016-May-02 08:31N 67°17' E 014°23'0 0.0
2016-May-02 07:31N 67°17' E 014°23'0 0.0
2016-May-02 06:31N 67°17' E 014°23'0 0.0
2016-May-02 05:31N 67°17' E 014°23'0 0.0
2016-May-02 04:31N 67°17' E 014°23'0 0.0
2016-May-02 03:31N 67°17' E 014°23'0 0.0
2016-May-02 02:31N 67°17' E 014°23'0 0.0
2016-May-02 01:31N 67°17' E 014°23'0 0.0
2016-May-02 00:31N 67°17' E 014°23'0 0.0
2016-May-01 23:31N 67°17' E 014°23'0 0.0
2016-May-01 22:31N 67°17' E 014°23'0 0.0
2016-May-01 21:31N 67°17' E 014°23'0 0.0
2016-May-01 20:31N 67°17' E 014°23'0 0.0
2016-May-01 19:31N 67°17' E 014°23'0 0.0
2016-May-01 18:31N 67°17' E 014°23'0 0.0
2016-May-01 17:31N 67°17' E 014°23'0 0.0
2016-May-01 16:31N 67°17' E 014°23'0 0.0
2016-May-01 15:31N 67°17' E 014°23'0 0.0
2016-May-01 14:31N 67°17' E 014°23'0 0.0
2016-May-01 13:31N 67°17' E 014°23'0 0.0
2016-May-01 12:31N 67°17' E 014°23'0 0.0
2016-May-01 11:31N 67°17' E 014°23'0 0.0
2016-May-01 10:31N 67°17' E 014°23'0 0.0
2016-May-01 09:31N 67°17' E 014°23'0 0.0
2016-May-01 08:31N 67°17' E 014°23'0 0.0
2016-May-01 07:31N 67°17' E 014°23'0 0.0
2016-May-01 06:31N 67°17' E 014°23'0 0.0
2016-May-01 05:31N 67°17' E 014°23'0 0.0
2016-May-01 04:31N 67°17' E 014°23'0 0.0
2016-May-01 03:31N 67°17' E 014°23'0 0.0
2016-May-01 02:31N 67°17' E 014°23'0 0.0
2016-May-01 01:31N 67°17' E 014°23'0 0.0
2016-May-01 00:31N 67°17' E 014°23'0 0.0
2016-Apr-30 23:31N 67°17' E 014°23'0 0.0
2016-Apr-30 22:31N 67°17' E 014°23'0 0.0
2016-Apr-30 21:31N 67°17' E 014°23'0 0.0
2016-Apr-30 20:31N 67°17' E 014°23'0 0.0
2016-Apr-30 19:31N 67°17' E 014°23'0 0.0
2016-Apr-30 18:31N 67°17' E 014°23'0 0.0
2016-Apr-30 17:31N 67°17' E 014°23'0 0.0
2016-Apr-30 16:31N 67°17' E 014°23'0 0.0
2016-Apr-30 15:31N 67°17' E 014°23'0 0.0
2016-Apr-30 14:31N 67°17' E 014°23'0 0.0
2016-Apr-30 13:31N 67°17' E 014°23'0 0.0
2016-Apr-30 12:31N 67°17' E 014°23'0 0.0
2016-Apr-30 11:31N 67°17' E 014°23'0 0.0
2016-Apr-30 10:31N 67°17' E 014°23'0 0.0
2016-Apr-30 09:28N 67°17' E 014°23'0 0.0
2016-Apr-30 08:31N 67°17' E 014°23'0 0.0
2016-Apr-30 07:31N 67°17' E 014°23'0 0.0
2016-Apr-30 06:31N 67°17' E 014°23'0 0.0
2016-Apr-30 05:31N 67°17' E 014°23'0 0.0
2016-Apr-30 04:31N 67°17' E 014°23'0 0.0
2016-Apr-30 03:31N 67°17' E 014°23'0 0.0
2016-Apr-30 02:31N 67°17' E 014°23'0 0.0
2016-Apr-30 01:31N 67°17' E 014°23'0 0.0
2016-Apr-30 00:31N 67°17' E 014°23'0 0.0
2016-Apr-29 23:31N 67°17' E 014°23'0 0.0
2016-Apr-29 22:31N 67°17' E 014°23'0 0.0
2016-Apr-29 21:31N 67°17' E 014°23'0 0.0
2016-Apr-29 20:31N 67°17' E 014°23'0 0.0
2016-Apr-29 19:31N 67°17' E 014°23'0 0.0
2016-Apr-29 18:31N 67°17' E 014°23'0 0.0
2016-Apr-29 17:31N 67°17' E 014°23'0 0.0
2016-Apr-29 16:31N 67°17' E 014°23'0 0.0
2016-Apr-29 15:31N 67°17' E 014°23'0 0.0
2016-Apr-29 14:34N 67°17' E 014°23'0 0.0
2016-Apr-29 13:31N 67°17' E 014°23'0 0.0
2016-Apr-29 12:31N 67°17' E 014°23'0 0.0
2016-Apr-29 11:31N 67°17' E 014°23'0 0.0
2016-Apr-29 10:31N 67°17' E 014°23'0 0.0
2016-Apr-29 09:31N 67°17' E 014°23'0 0.0
2016-Apr-29 08:31N 67°17' E 014°23'0 0.0
2016-Apr-29 07:34N 67°17' E 014°23'0 0.0
2016-Apr-29 06:31N 67°17' E 014°23'0 0.0
2016-Apr-29 05:31N 67°17' E 014°23'0 0.0
2016-Apr-29 04:34N 67°17' E 014°23'0 0.0
2016-Apr-29 03:31N 67°17' E 014°23'0 0.0
2016-Apr-29 02:31N 67°17' E 014°23'0 0.0
2016-Apr-29 01:31N 67°17' E 014°23'0 0.0
2016-Apr-29 00:31N 67°17' E 014°23'0 0.0
2016-Apr-28 23:34N 67°17' E 014°23'0 0.0
2016-Apr-28 22:31N 67°17' E 014°23'0 0.0
2016-Apr-28 21:31N 67°17' E 014°23'0 0.0
2016-Apr-28 20:33N 67°17' E 014°23'0 0.0
2016-Apr-28 19:33N 67°17' E 014°23'0 0.0
2016-Apr-28 18:31N 67°17' E 014°23'0 0.0
2016-Apr-28 17:34N 67°17' E 014°23'0 0.0
2016-Apr-28 16:30N 67°17' E 014°23'0 0.0
2016-Apr-28 15:34N 67°17' E 014°23'0 0.0
2016-Apr-28 14:34N 67°17' E 014°23'0 0.0
2016-Apr-28 13:33N 67°17' E 014°23'0 0.0
2016-Apr-28 12:33N 67°17' E 014°23'0 0.0
2016-Apr-28 11:34N 67°17' E 014°23'0 0.0
2016-Apr-28 10:31N 67°17' E 014°23'0 0.0
2016-Apr-28 09:33N 67°17' E 014°23'0 0.0
2016-Apr-28 08:34N 67°17' E 014°23'0 0.0
2016-Apr-28 07:33N 67°17' E 014°23'0 0.0
2016-Apr-28 06:33N 67°17' E 014°23'0 0.0
2016-Apr-28 05:33N 67°17' E 014°23'0 0.0
2016-Apr-28 04:33N 67°17' E 014°23'0 0.0
2016-Apr-28 03:33N 67°17' E 014°23'0 0.0
2016-Apr-28 02:33N 67°17' E 014°23'0 0.0
2016-Apr-28 01:33N 67°17' E 014°23'0 0.0
2016-Apr-28 00:33N 67°17' E 014°23'0 0.0
2016-Apr-27 23:34N 67°17' E 014°23'0 0.0
2016-Apr-27 22:33N 67°17' E 014°23'0 0.0
2016-Apr-27 21:33N 67°17' E 014°23'0 0.0
2016-Apr-27 20:33N 67°17' E 014°23'0 0.0
2016-Apr-27 19:33N 67°17' E 014°23'0 0.0
2016-Apr-27 18:33N 67°17' E 014°23'0 0.0
2016-Apr-27 17:33N 67°17' E 014°23'0 0.0
2016-Apr-27 16:33N 67°17' E 014°23'0 0.0
2016-Apr-27 15:33N 67°17' E 014°23'0 0.0
2016-Apr-27 14:33N 67°17' E 014°23'0 0.0
2016-Apr-27 13:33N 67°17' E 014°23'0 0.0
2016-Apr-27 12:33N 67°17' E 014°23'0 0.0
2016-Apr-27 11:33N 67°17' E 014°23'0 0.0
2016-Apr-27 10:33N 67°17' E 014°23'0 0.0
2016-Apr-27 09:33N 67°17' E 014°23'0 0.0
2016-Apr-27 08:33N 67°17' E 014°23'0 0.0
2016-Apr-27 07:33N 67°17' E 014°23'0 0.0
2016-Apr-27 06:33N 67°17' E 014°23'0 0.0
2016-Apr-27 05:33N 67°17' E 014°23'0 0.0
2016-Apr-27 04:33N 67°17' E 014°23'0 0.0
2016-Apr-27 03:33N 67°17' E 014°23'0 0.0
2016-Apr-27 02:33N 67°17' E 014°23'0 0.0
2016-Apr-27 01:33N 67°17' E 014°23'0 0.0
2016-Apr-27 00:33N 67°17' E 014°23'0 0.0
2016-Apr-26 23:33N 67°17' E 014°23'0 0.0
2016-Apr-26 22:33N 67°17' E 014°23'0 0.0
2016-Apr-26 21:33N 67°17' E 014°23'0 0.0
2016-Apr-26 20:33N 67°17' E 014°23'0 0.0
2016-Apr-26 19:33N 67°17' E 014°23'0 0.0
2016-Apr-26 18:33N 67°17' E 014°23'0 0.0
2016-Apr-26 17:33N 67°17' E 014°23'0 0.0
2016-Apr-26 16:33N 67°17' E 014°23'0 0.0
2016-Apr-26 15:33N 67°17' E 014°23'0 0.0
2016-Apr-26 14:30N 67°17' E 014°23'0 0.0
2016-Apr-26 13:33N 67°17' E 014°23'0 0.0
2016-Apr-26 12:33N 67°17' E 014°23'2 2.3
2016-Apr-26 11:33N 67°16' E 014°18'9 9.2
2016-Apr-26 10:33N 67°09' E 014°03'10 9.2
2016-Apr-26 09:30N 67°02' E 013°46'10 0.7
2016-Apr-25 18:33N 66°53' E 013°31'3 2.5
2016-Apr-25 17:20N 66°56' E 013°26'7 8.9
2016-Apr-25 16:33N 67°00' E 013°39'9 9.4
2016-Apr-25 15:33N 67°06' E 013°58'9 9.1
2016-Apr-25 14:33N 67°13' E 014°11'6 5.9
2016-Apr-25 13:31N 67°17' E 014°23'0 0.0
2016-Apr-25 12:31N 67°17' E 014°23'0 0.0
2016-Apr-25 11:31N 67°17' E 014°23'0 0.0
2016-Apr-25 10:31N 67°17' E 014°23'0 0.0
2016-Apr-25 09:31N 67°17' E 014°23'0 0.0
2016-Apr-25 08:31N 67°17' E 014°23'  

Dump ship's entire track history